createdAt,value
2019-05-06T00:00:27.092Z,10.60
2019-05-06T00:02:56.633Z,10.50
2019-05-06T00:05:26.043Z,10.40
2019-05-06T00:07:55.550Z,10.30
2019-05-06T00:10:34.117Z,10.50
2019-05-06T00:13:04.588Z,10.40
2019-05-06T00:15:34.514Z,10.40
2019-05-06T00:18:04.596Z,10.20
2019-05-06T00:20:35.349Z,10.10
2019-05-06T00:23:06.616Z,10.00
2019-05-06T00:25:56.075Z,10.00
2019-05-06T00:28:27.058Z,10.00
2019-05-06T00:31:12.094Z,10.00
2019-05-06T00:33:33.987Z,10.00
2019-05-06T00:36:04.734Z,9.90
2019-05-06T00:38:34.700Z,10.00
2019-05-06T00:41:06.045Z,10.10
2019-05-06T00:43:35.580Z,9.90
2019-05-06T00:46:05.085Z,10.00
2019-05-06T00:48:34.426Z,9.90
2019-05-06T00:51:04.464Z,9.80
2019-05-06T00:53:38.304Z,9.80
2019-05-06T00:56:07.655Z,9.90
2019-05-06T00:58:37.039Z,9.80
2019-05-06T01:01:06.487Z,9.80
2019-05-06T01:03:36.016Z,9.70
2019-05-06T01:06:05.586Z,9.80
2019-05-06T01:08:35.117Z,9.70
2019-05-06T01:11:05.841Z,9.70
2019-05-06T01:13:36.834Z,9.80
2019-05-06T01:16:06.876Z,9.80
2019-05-06T01:18:36.238Z,9.70
2019-05-06T01:21:11.691Z,9.70
2019-05-06T01:23:43.916Z,9.70
2019-05-06T01:26:15.596Z,9.60
2019-05-06T01:28:45.844Z,9.60
2019-05-06T01:31:15.650Z,9.70
2019-05-06T01:33:45.404Z,9.70
2019-05-06T01:36:15.309Z,9.40
2019-05-06T01:39:04.948Z,9.40
2019-05-06T01:41:50.963Z,9.30
2019-05-06T01:44:20.368Z,9.30
2019-05-06T01:46:49.701Z,9.20
2019-05-06T01:49:19.115Z,9.20
2019-05-06T01:51:48.463Z,9.10
2019-05-06T01:54:17.818Z,9.30
2019-05-06T01:56:47.152Z,9.30
2019-05-06T01:59:16.507Z,9.40
2019-05-06T02:01:57.357Z,9.40
2019-05-06T02:04:16.906Z,9.40
2019-05-06T02:06:46.251Z,9.30
2019-05-06T02:09:17.391Z,9.10
2019-05-06T02:11:48.077Z,9.00
2019-05-06T02:14:17.787Z,8.90
2019-05-06T02:16:47.198Z,8.80
2019-05-06T02:19:16.551Z,8.80
2019-05-06T02:21:47.598Z,8.60
2019-05-06T02:24:21.307Z,8.50
2019-05-06T02:26:50.714Z,8.50
2019-05-06T02:29:24.734Z,8.40
2019-05-06T02:32:17.193Z,8.50
2019-05-06T02:34:36.364Z,8.60
2019-05-06T02:37:10.412Z,8.50
2019-05-06T02:39:39.752Z,8.40
2019-05-06T02:42:09.183Z,8.50
2019-05-06T02:44:38.585Z,8.20
2019-05-06T02:47:25.987Z,8.20
2019-05-06T02:49:59.543Z,8.10
2019-05-06T02:52:28.961Z,8.10
2019-05-06T02:54:58.306Z,8.10
2019-05-06T02:57:27.665Z,8.20
2019-05-06T02:59:57.166Z,8.20
2019-05-06T03:02:42.082Z,8.20
2019-05-06T03:04:57.549Z,8.10
2019-05-06T03:07:26.904Z,8.10
2019-05-06T03:09:56.421Z,7.90
2019-05-06T03:12:25.840Z,8.00
2019-05-06T03:14:55.184Z,7.80
2019-05-06T03:17:24.824Z,8.00
2019-05-06T03:19:55.806Z,7.80
2019-05-06T03:22:36.115Z,8.00
2019-05-06T03:25:07.628Z,7.90
2019-05-06T03:27:36.994Z,8.10
2019-05-06T03:30:08.057Z,8.00
2019-05-06T03:32:58.342Z,7.90
2019-05-06T03:35:27.454Z,7.80
2019-05-06T03:37:39.757Z,7.90
2019-05-06T03:40:09.271Z,7.90
2019-05-06T03:42:38.623Z,8.00
2019-05-06T03:45:13.195Z,8.10
2019-05-06T03:47:47.528Z,7.80
2019-05-06T03:50:17.004Z,7.70
2019-05-06T03:52:46.495Z,7.90
2019-05-06T03:55:15.823Z,7.60
2019-05-06T03:57:46.920Z,7.70
2019-05-06T04:00:16.668Z,7.70
2019-05-06T04:02:46.035Z,7.80
2019-05-06T04:05:15.424Z,7.90
2019-05-06T04:07:46.151Z,7.90
2019-05-06T04:10:16.068Z,7.90
2019-05-06T04:12:45.517Z,7.90
2019-05-06T04:15:15.291Z,8.00
2019-05-06T04:17:53.769Z,7.90
2019-05-06T04:20:27.903Z,8.00
2019-05-06T04:22:59.949Z,8.10
2019-05-06T04:25:45.845Z,8.10
2019-05-06T04:28:19.609Z,8.10
2019-05-06T04:30:49.856Z,8.20
2019-05-06T04:33:19.563Z,8.20
2019-05-06T04:35:48.966Z,8.20
2019-05-06T04:38:18.920Z,8.30
2019-05-06T04:40:48.447Z,8.30
2019-05-06T04:43:17.959Z,8.30
2019-05-06T04:45:47.633Z,8.40
2019-05-06T04:48:17.128Z,8.40
2019-05-06T04:50:46.655Z,8.50
2019-05-06T04:53:16.095Z,8.50
2019-05-06T04:55:45.503Z,8.50
2019-05-06T04:58:15.004Z,8.60
2019-05-06T05:00:44.880Z,8.60
2019-05-06T05:03:14.425Z,8.60
2019-05-06T05:05:44.843Z,8.60
2019-05-06T05:08:14.709Z,8.60
2019-05-06T05:11:03.402Z,8.70
2019-05-06T05:13:43.321Z,8.70
2019-05-06T05:16:14.587Z,8.80
2019-05-06T05:18:45.846Z,8.90
2019-05-06T05:21:15.263Z,8.80
2019-05-06T05:23:45.031Z,8.90
2019-05-06T05:26:14.554Z,8.90
2019-05-06T05:28:44.255Z,9.00
2019-05-06T05:31:13.752Z,8.80
2019-05-06T05:33:43.422Z,8.70
2019-05-06T05:36:13.104Z,8.90
2019-05-06T05:38:43.168Z,8.80
2019-05-06T05:41:12.572Z,8.90
2019-05-06T05:43:47.254Z,9.10
2019-05-06T05:46:16.763Z,9.20
2019-05-06T05:48:48.350Z,9.30
2019-05-06T05:51:17.779Z,9.40
2019-05-06T05:53:47.408Z,9.20
2019-05-06T05:56:17.017Z,9.50
2019-05-06T05:58:46.508Z,9.30
2019-05-06T06:01:15.923Z,9.40
2019-05-06T06:03:45.335Z,9.60
2019-05-06T06:06:15.630Z,9.50
2019-05-06T06:08:45.119Z,9.60
2019-05-06T06:11:16.259Z,9.60
2019-05-06T06:13:45.666Z,9.60
2019-05-06T06:16:23.241Z,9.60
2019-05-06T06:18:57.151Z,9.60
2019-05-06T06:21:32.216Z,9.90
2019-05-06T06:24:09.575Z,9.90
2019-05-06T06:26:39.229Z,10.00
2019-05-06T06:29:08.631Z,10.00
2019-05-06T06:31:55.882Z,9.90
2019-05-06T06:34:27.167Z,10.20
2019-05-06T06:36:58.445Z,10.30
2019-05-06T06:39:29.495Z,10.30
2019-05-06T06:41:58.955Z,10.60
2019-05-06T06:44:33.180Z,10.80
2019-05-06T06:47:03.160Z,11.10
2019-05-06T06:49:32.881Z,11.20
2019-05-06T06:52:02.923Z,11.40
2019-05-06T06:54:32.540Z,11.20
2019-05-06T06:57:09.326Z,11.40
2019-05-06T06:59:39.928Z,11.40
2019-05-06T07:02:12.968Z,11.40
2019-05-06T07:04:44.004Z,11.60
2019-05-06T07:07:14.510Z,11.60
2019-05-06T07:09:43.850Z,11.80
2019-05-06T07:12:13.381Z,11.90
2019-05-06T07:14:42.957Z,11.80
2019-05-06T07:17:13.315Z,11.70
2019-05-06T07:19:44.697Z,12.00
2019-05-06T07:22:14.072Z,12.30
2019-05-06T07:24:43.415Z,12.30
2019-05-06T07:27:17.413Z,12.30
2019-05-06T07:29:48.116Z,12.50
2019-05-06T07:32:17.819Z,12.50
2019-05-06T07:34:47.337Z,12.70
2019-05-06T07:37:16.697Z,12.50
2019-05-06T07:39:46.052Z,12.50
2019-05-06T07:42:17.119Z,12.50
2019-05-06T07:44:57.090Z,12.40
2019-05-06T07:47:43.587Z,12.50
2019-05-06T07:50:13.467Z,12.40
2019-05-06T07:52:44.459Z,12.40
2019-05-06T07:55:14.052Z,12.60
2019-05-06T07:57:43.411Z,12.80
2019-05-06T08:00:13.358Z,13.00
2019-05-06T08:02:42.719Z,13.00
2019-05-06T08:05:12.744Z,13.10
2019-05-06T08:07:42.421Z,13.30
2019-05-06T08:10:13.574Z,13.40
2019-05-06T08:12:43.110Z,13.70
2019-05-06T08:15:14.885Z,13.90
2019-05-06T08:17:44.232Z,14.00
2019-05-06T08:20:14.930Z,14.00
2019-05-06T08:22:48.766Z,14.10
2019-05-06T08:25:18.284Z,13.80
2019-05-06T08:27:49.494Z,13.80
2019-05-06T08:30:19.260Z,13.70
2019-05-06T08:32:48.744Z,13.70
2019-05-06T08:35:18.551Z,13.70
2019-05-06T08:37:49.354Z,13.80
2019-05-06T08:40:19.032Z,14.00
2019-05-06T08:42:48.384Z,14.10
2019-05-06T08:45:17.914Z,13.70
2019-05-06T08:47:47.351Z,13.60
2019-05-06T08:50:21.857Z,13.30
2019-05-06T08:53:08.288Z,13.70
2019-05-06T08:55:45.339Z,13.80
2019-05-06T08:58:14.691Z,13.80
2019-05-06T09:00:57.350Z,13.90
2019-05-06T09:03:25.657Z,13.80
2019-05-06T09:05:55.139Z,13.90
2019-05-06T09:08:25.047Z,13.80
2019-05-06T09:10:54.490Z,13.80
2019-05-06T09:13:23.907Z,13.50
2019-05-06T09:15:53.320Z,13.60
2019-05-06T09:18:24.113Z,13.60
2019-05-06T09:20:54.068Z,13.70
2019-05-06T09:23:23.411Z,13.50
2019-05-06T09:25:53.280Z,13.80
2019-05-06T09:28:27.344Z,13.90
2019-05-06T09:30:58.387Z,14.00
2019-05-06T09:33:29.387Z,13.80
2019-05-06T09:35:58.753Z,13.60
2019-05-06T09:38:28.189Z,13.60
2019-05-06T09:40:57.559Z,13.70
2019-05-06T09:43:26.910Z,13.60
2019-05-06T09:45:56.292Z,13.80
2019-05-06T09:48:27.439Z,13.80
2019-05-06T09:50:56.803Z,13.90
2019-05-06T09:53:33.756Z,13.90
2019-05-06T09:56:16.815Z,14.00
2019-05-06T09:58:46.274Z,14.00
2019-05-06T10:01:16.666Z,14.10
2019-05-06T10:03:46.087Z,14.20
2019-05-06T10:06:15.451Z,14.10
2019-05-06T10:08:44.871Z,14.20
2019-05-06T10:11:14.219Z,14.50
2019-05-06T10:13:43.711Z,14.40
2019-05-06T10:16:13.311Z,14.90
2019-05-06T10:18:42.731Z,15.30
2019-05-06T10:21:12.531Z,15.60
2019-05-06T10:23:42.405Z,15.60
2019-05-06T10:26:12.938Z,15.50
2019-05-06T10:29:02.487Z,15.20
2019-05-06T10:31:33.630Z,15.10
2019-05-06T10:34:14.468Z,15.10
2019-05-06T10:36:48.643Z,15.20
2019-05-06T10:39:22.936Z,15.30
2019-05-06T10:41:57.468Z,15.20
2019-05-06T10:44:44.713Z,15.10
2019-05-06T10:47:14.068Z,15.30
2019-05-06T10:49:43.417Z,15.20
2019-05-06T10:52:23.157Z,15.30
2019-05-06T10:54:52.526Z,15.30
2019-05-06T10:57:26.078Z,15.60
2019-05-06T10:59:55.438Z,15.70
2019-05-06T11:02:35.662Z,15.70
2019-05-06T11:05:06.863Z,15.50
2019-05-06T11:07:36.203Z,15.40
2019-05-06T11:10:06.371Z,15.70
2019-05-06T11:12:35.786Z,15.60
2019-05-06T11:15:06.815Z,15.20
2019-05-06T11:17:36.164Z,15.60
2019-05-06T11:20:06.858Z,15.80
2019-05-06T11:22:37.122Z,16.20
2019-05-06T11:25:06.611Z,16.50
2019-05-06T11:27:39.465Z,16.50
2019-05-06T11:30:09.203Z,16.90
2019-05-06T11:32:44.461Z,16.80
2019-05-06T11:35:24.883Z,16.10
2019-05-06T11:38:01.782Z,16.80
2019-05-06T11:40:33.084Z,16.80
2019-05-06T11:43:02.268Z,16.70
2019-05-06T11:45:32.207Z,16.10
2019-05-06T11:48:01.742Z,16.80
2019-05-06T11:50:33.291Z,17.00
2019-05-06T11:53:02.576Z,17.00
2019-05-06T11:55:38.396Z,16.90
2019-05-06T11:58:04.362Z,16.80
2019-05-06T12:00:38.127Z,16.60
2019-05-06T12:03:07.555Z,16.70
2019-05-06T12:05:36.910Z,16.90
2019-05-06T12:08:08.195Z,17.00
2019-05-06T12:10:37.486Z,17.00
2019-05-06T12:13:06.826Z,16.90
2019-05-06T12:15:36.307Z,17.10
2019-05-06T12:18:05.715Z,17.20
2019-05-06T12:20:35.059Z,16.90
2019-05-06T12:23:04.801Z,17.20
2019-05-06T12:25:34.531Z,16.60
2019-05-06T12:28:04.086Z,16.50
2019-05-06T12:30:33.809Z,16.20
2019-05-06T12:33:05.315Z,15.90
2019-05-06T12:35:36.768Z,16.30
2019-05-06T12:38:23.962Z,16.70
2019-05-06T12:40:42.887Z,16.70
2019-05-06T12:43:29.325Z,16.70
2019-05-06T12:46:03.368Z,16.90
2019-05-06T12:48:34.525Z,17.30
2019-05-06T12:51:04.016Z,17.30
2019-05-06T12:53:33.367Z,17.20
2019-05-06T12:56:03.258Z,17.30
2019-05-06T12:58:32.731Z,17.20
2019-05-06T13:01:04.043Z,16.50
2019-05-06T13:03:34.990Z,16.80
2019-05-06T13:06:07.300Z,16.90
2019-05-06T13:08:53.902Z,16.90
2019-05-06T13:11:07.987Z,16.90
2019-05-06T13:13:37.366Z,16.90
2019-05-06T13:16:06.771Z,16.90
2019-05-06T13:18:36.127Z,16.90
2019-05-06T13:21:06.620Z,16.60
2019-05-06T13:23:43.483Z,16.50
2019-05-06T13:26:13.051Z,16.50
2019-05-06T13:28:44.227Z,16.50
2019-05-06T13:31:20.751Z,16.30
2019-05-06T13:33:46.431Z,15.90
2019-05-06T13:36:15.973Z,16.20
2019-05-06T13:38:45.324Z,16.40
2019-05-06T13:41:14.787Z,16.30
2019-05-06T13:43:45.923Z,16.30
2019-05-06T13:46:16.906Z,16.40
2019-05-06T13:48:53.123Z,16.40
2019-05-06T13:51:38.899Z,16.40
2019-05-06T13:54:08.330Z,16.60
2019-05-06T13:56:37.707Z,16.80
2019-05-06T13:59:07.114Z,16.80
2019-05-06T14:01:44.248Z,16.10
2019-05-06T14:04:15.494Z,16.40
2019-05-06T14:06:44.841Z,16.60
2019-05-06T14:09:28.642Z,16.60
2019-05-06T14:11:45.231Z,16.50
2019-05-06T14:14:14.625Z,16.30
2019-05-06T14:16:44.005Z,16.20
2019-05-06T14:19:13.377Z,16.20
2019-05-06T14:21:43.289Z,15.90
2019-05-06T14:24:13.462Z,15.90
2019-05-06T14:26:57.556Z,16.00
2019-05-06T14:29:30.187Z,16.20
2019-05-06T14:32:00.302Z,16.10
2019-05-06T14:34:32.211Z,16.20
2019-05-06T14:37:00.940Z,16.40
2019-05-06T14:39:48.542Z,16.70
2019-05-06T14:42:04.274Z,16.90
2019-05-06T14:44:34.034Z,17.10
2019-05-06T14:47:05.167Z,17.30
2019-05-06T14:49:34.680Z,17.50
2019-05-06T14:52:04.088Z,17.20
2019-05-06T14:54:35.299Z,17.10
2019-05-06T14:57:12.313Z,16.90
2019-05-06T14:59:42.254Z,16.80
2019-05-06T15:02:13.272Z,16.40
2019-05-06T15:04:43.572Z,16.50
2019-05-06T15:07:13.540Z,16.30
2019-05-06T15:09:55.865Z,16.30
2019-05-06T15:12:14.028Z,16.20
2019-05-06T15:14:43.412Z,16.20
2019-05-06T15:17:14.367Z,16.30
2019-05-06T15:19:43.968Z,16.00
2019-05-06T15:22:13.623Z,16.20
2019-05-06T15:24:43.153Z,16.20
2019-05-06T15:27:12.555Z,16.30
2019-05-06T15:29:43.578Z,16.50
2019-05-06T15:32:22.210Z,16.40
2019-05-06T15:34:56.054Z,16.50
2019-05-06T15:37:25.835Z,16.40
2019-05-06T15:39:55.284Z,16.60
2019-05-06T15:42:24.717Z,16.60
2019-05-06T15:44:54.168Z,16.30
2019-05-06T15:47:23.702Z,16.20
2019-05-06T15:49:53.060Z,16.40
2019-05-06T15:52:23.464Z,16.30
2019-05-06T15:54:53.169Z,16.30
2019-05-06T15:57:23.063Z,16.10
2019-05-06T15:59:53.106Z,16.30
2019-05-06T16:02:23.428Z,16.30
2019-05-06T16:04:53.215Z,16.10
2019-05-06T16:07:25.633Z,15.90
2019-05-06T16:09:55.365Z,16.10
2019-05-06T16:12:25.088Z,16.30
2019-05-06T16:14:54.458Z,16.20
2019-05-06T16:17:24.059Z,15.90
2019-05-06T16:19:53.531Z,16.00
2019-05-06T16:22:22.970Z,15.80
2019-05-06T16:24:54.179Z,15.80
2019-05-06T16:27:23.734Z,15.90
2019-05-06T16:29:53.207Z,15.60
2019-05-06T16:32:22.755Z,15.80
2019-05-06T16:34:52.563Z,15.20
2019-05-06T16:37:22.395Z,15.60
2019-05-06T16:39:52.414Z,15.70
2019-05-06T16:42:23.069Z,15.60
2019-05-06T16:44:52.846Z,15.70
2019-05-06T16:47:38.273Z,15.60
2019-05-06T16:50:12.992Z,15.30
2019-05-06T16:52:44.799Z,15.20
2019-05-06T16:55:15.270Z,15.10
2019-05-06T16:57:46.239Z,14.50
2019-05-06T17:00:17.795Z,14.80
2019-05-06T17:02:57.743Z,15.00
2019-05-06T17:05:33.681Z,15.20
2019-05-06T17:08:03.186Z,15.20
2019-05-06T17:10:32.780Z,15.10
2019-05-06T17:13:02.908Z,15.00
2019-05-06T17:15:32.853Z,14.80
2019-05-06T17:18:03.126Z,14.80
2019-05-06T17:20:32.965Z,14.60
2019-05-06T17:23:03.016Z,14.30
2019-05-06T17:25:33.686Z,14.70
2019-05-06T17:28:07.943Z,14.60
2019-05-06T17:30:44.673Z,14.70
2019-05-06T17:33:33.442Z,14.80
2019-05-06T17:36:03.767Z,14.60
2019-05-06T17:38:34.873Z,14.70
2019-05-06T17:41:04.293Z,14.50
2019-05-06T17:43:38.741Z,14.50
2019-05-06T17:46:06.718Z,14.50
2019-05-06T17:48:49.973Z,14.60
2019-05-06T17:51:21.041Z,14.60
2019-05-06T17:53:52.371Z,14.60
2019-05-06T17:56:22.364Z,14.60
2019-05-06T17:58:53.247Z,14.60
2019-05-06T18:01:32.685Z,14.70
2019-05-06T18:04:02.203Z,14.80
2019-05-06T18:06:32.970Z,14.80
2019-05-06T18:09:02.847Z,14.80
2019-05-06T18:11:33.208Z,14.90
2019-05-06T18:14:04.158Z,14.60
2019-05-06T18:16:33.973Z,14.70
2019-05-06T18:19:03.666Z,14.80
2019-05-06T18:21:33.169Z,14.10
2019-05-06T18:24:03.084Z,14.00
2019-05-06T18:26:33.629Z,14.20
2019-05-06T18:29:03.741Z,14.00
2019-05-06T18:31:33.810Z,14.20
2019-05-06T18:34:06.146Z,14.00
2019-05-06T18:36:34.316Z,14.10
2019-05-06T18:39:05.998Z,14.00
2019-05-06T18:41:36.005Z,14.00
2019-05-06T18:44:05.511Z,14.10
2019-05-06T18:46:34.995Z,14.10
2019-05-06T18:49:04.704Z,14.10
2019-05-06T18:51:34.542Z,14.10
2019-05-06T18:54:03.955Z,13.80
2019-05-06T18:56:33.395Z,14.00
2019-05-06T18:59:02.990Z,14.00
2019-05-06T19:01:33.297Z,14.00
2019-05-06T19:04:04.562Z,13.90
2019-05-06T19:06:34.000Z,14.00
2019-05-06T19:09:05.446Z,13.90
2019-05-06T19:11:34.873Z,13.90
2019-05-06T19:14:04.683Z,13.90
2019-05-06T19:16:47.839Z,13.90
2019-05-06T19:19:06.023Z,13.80
2019-05-06T19:21:35.654Z,13.80
2019-05-06T19:24:05.063Z,13.80
2019-05-06T19:26:34.462Z,13.80
2019-05-06T19:29:04.654Z,13.70
2019-05-06T19:31:34.166Z,13.80
2019-05-06T19:34:03.815Z,13.70
2019-05-06T19:36:34.855Z,13.70
2019-05-06T19:39:07.248Z,13.60
2019-05-06T19:41:36.607Z,13.60
2019-05-06T19:44:06.328Z,13.60
2019-05-06T19:46:35.683Z,13.60
2019-05-06T19:49:05.137Z,13.50
2019-05-06T19:51:34.620Z,13.50
2019-05-06T19:54:04.323Z,13.50
2019-05-06T19:56:33.875Z,13.40
2019-05-06T19:59:03.227Z,13.40
2019-05-06T20:01:32.649Z,13.40
2019-05-06T20:04:02.655Z,13.40
2019-05-06T20:06:49.175Z,13.40
2019-05-06T20:09:29.299Z,13.40
2019-05-06T20:12:02.297Z,13.40
2019-05-06T20:14:31.399Z,13.30
2019-05-06T20:17:00.910Z,13.30
2019-05-06T20:19:33.320Z,13.30
2019-05-06T20:22:01.968Z,13.30
2019-05-06T20:24:33.287Z,13.30
2019-05-06T20:27:02.665Z,13.20
2019-05-06T20:29:33.042Z,13.20
2019-05-06T20:32:03.068Z,13.20
2019-05-06T20:34:32.424Z,13.20
2019-05-06T20:37:02.153Z,13.20
2019-05-06T20:39:32.309Z,13.20
2019-05-06T20:42:02.855Z,13.10
2019-05-06T20:44:32.577Z,13.10
2019-05-06T20:47:03.073Z,13.10
2019-05-06T20:49:33.310Z,13.10
2019-05-06T20:52:02.832Z,13.10
2019-05-06T20:54:32.567Z,13.10
2019-05-06T20:57:02.657Z,13.00
2019-05-06T20:59:32.305Z,13.00
2019-05-06T21:02:03.115Z,13.00
2019-05-06T21:04:32.645Z,13.10
2019-05-06T21:07:02.737Z,13.00
2019-05-06T21:09:32.263Z,13.00
2019-05-06T21:12:01.693Z,13.00
2019-05-06T21:14:32.346Z,12.90
2019-05-06T21:17:02.589Z,12.90
2019-05-06T21:19:33.156Z,12.90
2019-05-06T21:22:02.905Z,12.90
2019-05-06T21:24:35.719Z,12.90
2019-05-06T21:27:03.425Z,12.90
2019-05-06T21:29:32.770Z,12.80
2019-05-06T21:32:02.760Z,12.90
2019-05-06T21:34:32.817Z,12.80
2019-05-06T21:37:02.957Z,12.90
2019-05-06T21:39:32.931Z,12.80
2019-05-06T21:42:02.403Z,12.70
2019-05-06T21:44:32.458Z,12.70
2019-05-06T21:47:02.882Z,12.70
2019-05-06T21:49:32.813Z,12.70
2019-05-06T21:52:02.391Z,12.70
2019-05-06T21:54:32.793Z,12.70
2019-05-06T21:57:03.056Z,12.70
2019-05-06T21:59:32.609Z,12.60
2019-05-06T22:02:02.915Z,12.60
2019-05-06T22:04:32.785Z,12.60
2019-05-06T22:07:03.009Z,12.60
2019-05-06T22:09:32.548Z,12.60
2019-05-06T22:12:02.402Z,12.60
2019-05-06T22:14:32.666Z,12.60
2019-05-06T22:17:04.109Z,12.60
2019-05-06T22:19:33.954Z,12.60
2019-05-06T22:22:08.001Z,12.70
2019-05-06T22:24:55.547Z,12.60
2019-05-06T22:27:22.024Z,12.70
2019-05-06T22:29:52.266Z,12.60
2019-05-06T22:32:23.122Z,12.40
2019-05-06T22:34:52.712Z,12.20
2019-05-06T22:37:22.218Z,12.40
2019-05-06T22:39:52.748Z,12.40
2019-05-06T22:42:24.775Z,12.40
2019-05-06T22:44:53.613Z,12.40
2019-05-06T22:47:23.206Z,12.40
2019-05-06T22:49:54.404Z,12.30
2019-05-06T22:52:23.831Z,12.30
2019-05-06T22:54:53.159Z,12.30
2019-05-06T22:57:23.531Z,12.30
2019-05-06T22:59:53.546Z,12.70
2019-05-06T23:02:24.594Z,12.20
2019-05-06T23:04:55.575Z,12.30
2019-05-06T23:07:25.033Z,12.20
2019-05-06T23:09:54.586Z,12.30
2019-05-06T23:12:24.039Z,12.30
2019-05-06T23:14:53.464Z,12.40
2019-05-06T23:17:22.828Z,12.40
2019-05-06T23:19:52.838Z,12.50
2019-05-06T23:22:22.754Z,12.40
2019-05-06T23:24:54.082Z,12.40
2019-05-06T23:27:23.421Z,12.40
2019-05-06T23:29:52.858Z,12.40
2019-05-06T23:32:22.883Z,12.40
2019-05-06T23:34:52.580Z,12.40
2019-05-06T23:37:23.017Z,12.40
2019-05-06T23:40:30.165Z,12.50
2019-05-06T23:43:35.754Z,12.40
2019-05-06T23:46:42.067Z,12.40
2019-05-06T23:49:47.815Z,12.40
2019-05-06T23:52:53.957Z,12.30
2019-05-06T23:55:59.874Z,12.30
2019-05-06T23:58:32.050Z,12.20
